Ana Sayfa
METAR-TAF:

METAR-TAF

Havaalanları :

Şehrekürd Havalimanı

Şehrekürd, İran

Enlem: 32-20N, Boylam: 050-51E, yükseklik: 2078 m

Güncel hava durumu gözlemi

Rapor saat 12:00 UTC de 50 dakika önce yapıldı.
Rüzgar kuzeybatıdan 4 kt
Sıcaklık 29°C
Nem 11%
Basınç 1026 hPa
Görüş mesafesi 10 km veya daha fazla
4000 ft yükseklikte az bulutlu

METAR: OIFS 251200Z 31004KT 9999 FEW040 29/M04 Q1026

Saat: 17:20 (12:50 UTC)


TAF: eksik

4.000'den fazla havaalanı için hava durumu gözlemleri ve tahminleri (METAR ve TAF raporları).

Kullanılabilir istasyonlar harita üzerinde sarı ve kırmızı noktalarla gösterilir.

İstasyonun adını görmek için fareyi noktanın üzerinde gezdirin.

Sonrasında hava gözlem ve tahminlerini görmek için tıklayın.

Haritayı değiştirmek için: yaklaştırmak için siyah artı işaretli yeşil düğmeye ve uzaklaştırmak için de eksi işaretli düğmeye hızla tıklayın; bitişik haritalar için yeşil okları kullanın.


METAR-TAF: